Holmen, WI

5:32 PM CDT on May 27, 2015 (GMT -0500)
Sparta-Fort McCoy | | Change Station
CLOSE
Current Station
Airport
Location: Sparta,
Elevation: 837 ft
Nearby Weather Stations

Elev 837 ft 43.96 °N, 90.74 °W | Updated 17 minutes ago

Clear
Clear
79 °F
Feels Like 79 °F
N
8
Wind Variable Wind from WSW

Today
High -- | Low -- °F
--% Chance of Precip.
Yesterday
High -- | Low -- °F
Precip. -- in
5:28 AM 8:36 PM
Waxing Gibbous, 70% visible
Pressure 30.01 in
Visibility 10.0 miles
Clouds Scattered Clouds 5000 ft
Dew Point 55 °F
Humidity 44%
Rainfall 0.01 in
Snow Depth Not available.
UV 3 out of 12
Pollen 5.10 out of 12
Air Quality Not available.
Flu Activity Sporadic
METAR KCMY 272215Z AUTO 25007KT 230V290 10SM SCT050 26/13 A3001 RMK AO2 T02600127

More Conditions Fewer Conditions

Pressure 30.01 in
Visibility 10.0 miles
Clouds Scattered Clouds 5000 ft
Dew Point 55 °F
Humidity 44%
Rainfall 0.01 in
Snow Depth Not available.
UV 3 out of 12
Pollen 5.10 out of 12
Air Quality Not available.
Flu Activity Sporadic
METAR KCMY 272215Z AUTO 25007KT 230V290 10SM SCT050 26/13 A3001 RMK AO2 T02600127

More Conditions Fewer Conditions

10-Day Weather Forecast

Almanac

Astronomy

May. 27, 2015 Rise Set
Actual Time
Civil Twilight
Nautical Twilight
Astronomical Twilight
Moon
Length of Visible Light
Length of Day
Tomorrow will be .
, % of the Moon is Illuminated

Today's Extremes

State Highs State Lows

Community

WunderPhotos

Upload Photos

1,824,813 photos uploaded!

WunderBlogs® & News

Nearby

Air Quality

  Air Quality AQ Index Pollutant
Not available.

Snow Depth

Station Depth Elevation

Earthquake Activity

City Distance Mag. Time & Date
Minimum magnitude displayed is 2.5.

Coastal Water Temperatures

Place Temperature

Stations

Nearby Weather Stations

Station Location Temp. Windchill Dew Point Humidity Wind Precip. Elev Updated Type